createdAt,value
2018-12-18T00:00:02.512Z,101032.61
2018-12-18T00:05:14.538Z,101023.92
2018-12-18T00:10:18.816Z,101032.55
2018-12-18T00:15:23.051Z,101035.83
2018-12-18T00:20:27.239Z,101038.17
2018-12-18T00:25:31.696Z,101033.06
2018-12-18T00:30:36.980Z,101036.63
2018-12-18T00:35:41.248Z,101044.59
2018-12-18T00:40:45.597Z,101047.09
2018-12-18T00:45:50.813Z,101052.19
2018-12-18T00:50:55.090Z,101046.17
2018-12-18T00:55:59.188Z,101043.70
2018-12-18T01:01:03.597Z,101037.02
2018-12-18T01:06:08.868Z,101046.13
2018-12-18T01:11:13.017Z,101041.33
2018-12-18T01:16:17.239Z,101045.41
2018-12-18T01:21:21.427Z,101047.06
2018-12-18T01:26:26.026Z,101051.50
2018-12-18T01:31:30.358Z,101050.61
2018-12-18T01:36:34.722Z,101047.02
2018-12-18T01:41:44.122Z,101056.07
2018-12-18T01:46:48.550Z,101057.09
2018-12-18T01:51:53.026Z,101062.66
2018-12-18T01:56:57.335Z,101055.84
2018-12-18T02:02:01.901Z,101062.66
2018-12-18T02:07:06.097Z,101068.75
2018-12-18T02:12:13.301Z,101084.55
2018-12-18T02:17:20.141Z,101081.88
2018-12-18T02:22:24.316Z,101089.00
2018-12-18T02:27:28.515Z,101079.48
2018-12-18T02:32:32.881Z,101089.06
2018-12-18T02:37:37.203Z,101082.84
2018-12-18T02:42:41.350Z,101081.69
2018-12-18T02:47:46.567Z,101077.41
2018-12-18T02:52:51.623Z,101079.18
2018-12-18T02:57:55.993Z,101077.10
2018-12-18T03:03:00.205Z,101073.39
2018-12-18T03:08:04.402Z,101070.63
2018-12-18T03:13:08.665Z,101065.95
2018-12-18T03:18:13.035Z,101066.19
2018-12-18T03:23:17.269Z,101081.13
2018-12-18T03:28:21.431Z,101072.77
2018-12-18T03:33:25.747Z,101085.14
2018-12-18T03:38:30.414Z,101084.45
2018-12-18T03:43:34.684Z,101080.67
2018-12-18T03:48:38.978Z,101085.44
2018-12-18T03:53:43.069Z,101091.50
2018-12-18T03:58:47.227Z,101087.77
2018-12-18T04:03:51.679Z,101098.08
2018-12-18T04:08:56.727Z,101089.59
2018-12-18T04:14:00.933Z,101089.25
2018-12-18T04:19:06.722Z,101085.11
2018-12-18T04:24:11.098Z,101089.66
2018-12-18T04:29:15.425Z,101088.34
2018-12-18T04:34:21.111Z,101098.05
2018-12-18T04:39:25.625Z,101096.90
2018-12-18T04:44:29.959Z,101100.48
2018-12-18T04:49:34.201Z,101105.62
2018-12-18T04:54:38.717Z,101108.88
2018-12-18T04:59:43.092Z,101105.15
2018-12-18T05:04:50.568Z,101105.08
2018-12-18T05:09:54.101Z,101106.40
2018-12-18T05:14:58.282Z,101110.70
2018-12-18T05:20:03.966Z,101110.64
2018-12-18T05:25:08.325Z,101119.29
2018-12-18T05:30:12.974Z,101126.13
2018-12-18T05:35:17.448Z,101120.73
2018-12-18T05:40:21.923Z,101119.34
2018-12-18T05:45:26.496Z,101123.30
2018-12-18T05:50:31.206Z,101120.66
2018-12-18T05:55:35.860Z,101124.91
2018-12-18T06:00:41.660Z,101136.45
2018-12-18T06:05:46.144Z,101140.86
2018-12-18T06:10:50.630Z,101144.20
2018-12-18T06:15:55.010Z,101154.09
2018-12-18T06:21:02.848Z,101149.20
2018-12-18T06:26:07.026Z,101159.85
2018-12-18T06:31:11.568Z,101164.92
2018-12-18T06:36:16.216Z,101170.98
2018-12-18T06:41:20.661Z,101174.93
2018-12-18T06:46:24.888Z,101186.25
2018-12-18T06:51:32.978Z,101183.91
2018-12-18T06:56:38.014Z,101184.52
2018-12-18T07:01:42.444Z,101186.17
2018-12-18T07:06:46.886Z,101183.13
2018-12-18T07:11:51.210Z,101182.52
2018-12-18T07:16:55.376Z,101189.86
2018-12-18T07:21:59.806Z,101191.25
2018-12-18T07:27:04.576Z,101183.91
2018-12-18T07:32:09.094Z,101192.34
2018-12-18T07:37:13.919Z,101193.13
2018-12-18T07:42:18.356Z,101192.83
2018-12-18T07:47:23.472Z,101180.72
2018-12-18T07:52:28.308Z,101176.40
2018-12-18T07:57:32.790Z,101175.08
2018-12-18T08:02:37.184Z,101187.22
2018-12-18T08:07:42.059Z,101185.45
2018-12-18T08:12:47.050Z,101185.38
2018-12-18T08:17:51.220Z,101190.29
2018-12-18T08:22:55.596Z,101190.44
2018-12-18T08:27:59.825Z,101197.96
2018-12-18T08:33:04.170Z,101204.31
2018-12-18T08:38:08.674Z,101203.75
2018-12-18T08:43:18.273Z,101206.16
2018-12-18T08:48:22.812Z,101201.45
2018-12-18T08:53:27.142Z,101207.89
2018-12-18T08:58:31.616Z,101208.56
2018-12-18T09:03:36.181Z,101208.86
2018-12-18T09:08:40.787Z,101212.42
2018-12-18T09:13:46.440Z,101214.90
2018-12-18T09:18:50.972Z,101223.47
2018-12-18T09:23:59.418Z,101217.97
2018-12-18T09:29:04.951Z,101213.44
2018-12-18T09:34:09.538Z,101211.37
2018-12-18T09:39:23.109Z,101213.37
2018-12-18T09:44:29.781Z,101203.86
2018-12-18T09:49:34.687Z,101201.59
2018-12-18T09:54:39.169Z,101200.64
2018-12-18T10:09:09.777Z,101194.28
2018-12-18T10:14:14.627Z,101188.12
2018-12-18T10:19:19.241Z,101188.98
2018-12-18T10:24:24.012Z,101188.04
2018-12-18T10:29:28.553Z,101189.56
2018-12-18T10:34:32.773Z,101174.77
2018-12-18T10:39:37.101Z,101166.41
2018-12-18T10:44:41.639Z,101161.77
2018-12-18T10:49:45.938Z,101153.22
2018-12-18T10:54:50.622Z,101145.42
2018-12-18T10:59:55.383Z,101139.27
2018-12-18T11:05:02.265Z,101123.61
2018-12-18T11:10:11.800Z,101122.14
2018-12-18T11:15:16.325Z,101122.00
2018-12-18T11:20:20.687Z,101115.97
2018-12-18T11:25:25.216Z,101111.14
2018-12-18T11:30:30.047Z,101091.67
2018-12-18T11:35:34.661Z,101067.39
2018-12-18T11:40:39.049Z,101065.56
2018-12-18T11:45:43.337Z,101054.58
2018-12-18T11:50:48.249Z,101055.17
2018-12-18T11:55:52.820Z,101047.21
2018-12-18T12:00:57.122Z,101047.28
2018-12-18T12:06:01.796Z,101042.53
2018-12-18T12:11:06.313Z,101040.67
2018-12-18T12:16:11.244Z,101044.38
2018-12-18T12:21:15.625Z,101037.43
2018-12-18T12:26:34.707Z,101041.48
2018-12-18T12:31:43.999Z,101038.31
2018-12-18T12:36:48.251Z,101028.22
2018-12-18T12:41:52.857Z,101025.43
2018-12-18T12:46:57.203Z,101016.48
2018-12-18T12:52:01.735Z,101000.82
2018-12-18T12:57:06.260Z,101012.88
2018-12-18T13:02:10.624Z,101012.98
2018-12-18T13:07:14.829Z,100999.19
2018-12-18T13:12:19.170Z,100994.19
2018-12-18T13:17:23.600Z,100988.01
2018-12-18T13:22:27.967Z,100988.78
2018-12-18T13:27:32.137Z,100977.17
2018-12-18T13:32:36.501Z,100969.95
2018-12-18T13:37:40.649Z,100965.62
2018-12-18T13:42:44.963Z,100962.41
2018-12-18T13:47:49.341Z,100961.08
2018-12-18T13:52:53.865Z,100962.69
2018-12-18T13:57:59.319Z,100950.83
2018-12-18T14:03:04.263Z,100954.76
2018-12-18T14:08:08.949Z,100943.77
2018-12-18T14:13:13.239Z,100950.13
2018-12-18T14:18:17.651Z,100946.23
2018-12-18T14:23:22.093Z,100936.47
2018-12-18T14:28:26.662Z,100937.55
2018-12-18T14:33:31.213Z,100933.06
2018-12-18T14:38:35.842Z,100932.59
2018-12-18T14:43:45.327Z,100922.90
2018-12-18T14:48:50.330Z,100929.37
2018-12-18T14:53:55.330Z,100924.92
2018-12-18T14:58:59.713Z,100930.89
2018-12-18T15:04:04.296Z,100928.31
2018-12-18T15:09:08.844Z,100911.76
2018-12-18T15:14:13.224Z,100903.22
2018-12-18T15:19:17.688Z,100912.89
2018-12-18T15:24:21.860Z,100903.28
2018-12-18T15:29:26.492Z,100905.52
2018-12-18T15:34:31.048Z,100902.88
2018-12-18T15:39:35.770Z,100905.92
2018-12-18T15:44:40.154Z,100912.27
2018-12-18T15:49:44.625Z,100919.83
2018-12-18T15:54:50.037Z,100926.33
2018-12-18T15:59:54.462Z,100939.72
2018-12-18T16:04:58.997Z,100931.86
2018-12-18T16:10:04.017Z,100933.16
2018-12-18T16:15:09.380Z,100929.44
2018-12-18T16:20:14.156Z,100934.48
2018-12-18T16:25:20.381Z,100933.61
2018-12-18T16:30:25.245Z,100931.20
2018-12-18T16:35:30.101Z,100929.84
2018-12-18T16:40:34.845Z,100929.49
2018-12-18T16:45:39.417Z,100928.79
2018-12-18T16:50:44.479Z,100922.53
2018-12-18T16:55:48.795Z,100916.77
2018-12-18T17:00:54.551Z,100928.30
2018-12-18T17:05:59.683Z,100924.45
2018-12-18T17:11:04.467Z,100912.77
2018-12-18T17:16:09.114Z,100916.84
2018-12-18T17:21:14.753Z,100921.55
2018-12-18T17:26:19.283Z,100918.16
2018-12-18T17:31:23.658Z,100929.97
2018-12-18T17:36:28.155Z,100921.56
2018-12-18T17:41:32.563Z,100925.08
2018-12-18T17:46:37.433Z,100920.78
2018-12-18T17:51:47.147Z,100917.50
2018-12-18T17:56:51.742Z,100908.22
2018-12-18T18:01:56.151Z,100907.27
2018-12-18T18:07:01.399Z,100896.43
2018-12-18T18:12:10.794Z,100884.76
2018-12-18T18:17:15.331Z,100884.70
2018-12-18T18:22:29.075Z,100888.04
2018-12-18T18:27:33.988Z,100885.72
2018-12-18T18:32:38.689Z,100879.78
2018-12-18T18:37:49.620Z,100872.44
2018-12-18T18:42:50.568Z,100860.77
2018-12-18T18:47:55.221Z,100855.86
2018-12-18T18:53:00.391Z,100858.30
2018-12-18T18:58:04.989Z,100848.51
2018-12-18T19:03:09.957Z,100850.06
2018-12-18T19:08:14.259Z,100848.16
2018-12-18T19:13:24.043Z,100828.19
2018-12-18T19:18:28.313Z,100825.52
2018-12-18T19:23:39.033Z,100827.56
2018-12-18T19:28:50.243Z,100828.47
2018-12-18T19:33:52.271Z,100833.91
2018-12-18T19:38:59.958Z,100826.53
2018-12-18T19:44:10.297Z,100822.79
2018-12-18T19:49:14.861Z,100819.84
2018-12-18T19:54:19.997Z,100814.39
2018-12-18T19:59:27.231Z,100809.27
2018-12-18T20:04:32.070Z,100802.14
2018-12-18T20:09:36.722Z,100818.88
2018-12-18T20:14:41.442Z,100817.20
2018-12-18T20:19:46.352Z,100798.47
2018-12-18T20:24:51.050Z,100801.66
2018-12-18T20:29:56.822Z,100799.55
2018-12-18T20:35:03.016Z,100793.88
2018-12-18T20:40:09.702Z,100776.25
2018-12-18T20:45:14.450Z,100783.81
2018-12-18T20:50:19.296Z,100781.39
2018-12-18T20:55:25.054Z,100772.59
2018-12-18T21:00:29.649Z,100764.80
2018-12-18T21:05:34.233Z,100755.47
2018-12-18T21:10:39.426Z,100750.09
2018-12-18T21:15:43.905Z,100743.86
2018-12-18T21:20:48.639Z,100744.28
2018-12-18T21:25:56.113Z,100728.62
2018-12-18T21:31:01.095Z,100721.81
2018-12-18T21:36:05.678Z,100715.28
2018-12-18T21:41:10.095Z,100705.37
2018-12-18T21:46:14.585Z,100713.88
2018-12-18T21:51:19.996Z,100701.10
2018-12-18T21:56:24.509Z,100694.99
2018-12-18T22:01:29.309Z,100698.37
2018-12-18T22:06:34.269Z,100683.56
2018-12-18T22:11:38.542Z,100673.85
2018-12-18T22:16:43.462Z,100654.45
2018-12-18T22:21:48.038Z,100635.94
2018-12-18T22:26:52.286Z,100640.53
2018-12-18T22:31:56.600Z,100627.41
2018-12-18T22:37:01.472Z,100630.50
2018-12-18T22:42:05.844Z,100620.16
2018-12-18T22:47:11.368Z,100612.16
2018-12-18T22:52:17.518Z,100608.15
2018-12-18T22:57:22.081Z,100605.09
2018-12-18T23:02:26.533Z,100595.98
2018-12-18T23:07:31.050Z,100598.23
2018-12-18T23:12:37.646Z,100590.66
2018-12-18T23:17:43.383Z,100578.92
2018-12-18T23:22:52.739Z,100575.44
2018-12-18T23:27:56.978Z,100559.04
2018-12-18T23:33:02.055Z,100550.48
2018-12-18T23:38:06.610Z,100549.30
2018-12-18T23:43:11.437Z,100533.55
2018-12-18T23:48:16.137Z,100522.86
2018-12-18T23:53:29.627Z,100509.22
2018-12-18T23:58:33.907Z,100497.41
